Time;durP1;ratioP1;P1;durP2;ratioP2;P2;SDS_P1;SDS_P2;PMS_P1;PMS_P2;Temp;Humidity;BMP_temperature;BMP_pressure;BME280_temperature;BME280_humidity;BME280_pressure;Samples;Min_cycle;Max_cycle;Signal;HPM_P1;HPM_P2
2021/04/21 00:00:38;;;;;;;13.93;12.15;;;;;;;;;;2096852;28;20538;-56
2021/04/21 00:01:40;;;;;;;15.80;13.52;;;;;;;;;;2091159;28;20168;-58
2021/04/21 00:02:41;;;;;;;17.30;11.82;;;;;;;;;;2097140;28;20328;-60
2021/04/21 00:03:43;;;;;;;13.88;12.13;;;;;;;;;;2086743;28;20664;-60
2021/04/21 00:04:45;;;;;;;15.25;12.25;;;;;;;;;;2096081;28;20163;-58
2021/04/21 00:05:46;;;;;;;16.20;12.60;;;;;;;;;;2089917;28;20191;-60
2021/04/21 00:06:47;;;;;;;13.32;11.95;;;;;;;;;;2093347;28;20167;-57
2021/04/21 00:07:48;;;;;;;19.40;13.55;;;;;;;;;;2091209;28;20176;-57
2021/04/21 00:08:49;;;;;;;13.87;12.43;;;;;;;;;;2097542;28;20220;-59
2021/04/21 00:09:51;;;;;;;16.45;13.20;;;;;;;;;;2095181;28;20256;-57
2021/04/21 00:10:52;;;;;;;17.75;13.20;;;;;;;;;;2082390;28;20545;-59
2021/04/21 00:11:53;;;;;;;14.57;13.10;;;;;;;;;;2089044;28;20254;-57
2021/04/21 00:12:54;;;;;;;17.02;13.30;;;;;;;;;;2097799;28;20284;-59
2021/04/21 00:13:55;;;;;;;18.48;13.10;;;;;;;;;;2089617;28;20550;-58
2021/04/21 00:14:55;;;;;;;15.45;12.50;;;;;;;;;;2097480;28;20155;-58
2021/04/21 00:15:55;;;;;;;16.73;13.75;;;;;;;;;;2089538;28;20681;-59
2021/04/21 00:16:57;;;;;;;15.07;12.57;;;;;;;;;;2093812;28;20172;-56
2021/04/21 00:17:59;;;;;;;15.63;12.75;;;;;;;;;;2083030;28;20221;-61
2021/04/21 00:19:01;;;;;;;16.23;13.23;;;;;;;;;;2094776;28;20173;-56
2021/04/21 00:20:01;;;;;;;17.77;13.70;;;;;;;;;;2085608;28;20171;-57
2021/04/21 00:21:03;;;;;;;15.50;12.55;;;;;;;;;;2087266;28;20167;-57
2021/04/21 00:22:04;;;;;;;19.70;12.80;;;;;;;;;;2091052;28;20636;-59
2021/04/21 00:23:06;;;;;;;15.27;13.55;;;;;;;;;;2095162;28;20187;-58
2021/04/21 00:24:08;;;;;;;15.30;13.70;;;;;;;;;;2094374;28;20175;-58
2021/04/21 00:25:11;;;;;;;14.23;12.73;;;;;;;;;;2091630;28;20663;-56
2021/04/21 00:26:16;;;;;;;14.75;13.35;;;;;;;;;;2094502;28;20174;-56
2021/04/21 00:27:17;;;;;;;15.23;12.85;;;;;;;;;;2092505;28;20328;-56
2021/04/21 00:28:18;;;;;;;14.50;12.70;;;;;;;;;;2089843;28;20182;-61
2021/04/21 00:29:19;;;;;;;14.13;12.73;;;;;;;;;;2080047;28;20215;-55
2021/04/21 00:30:26;;;;;;;14.43;12.35;;;;;;;;;;2077582;28;20176;-59
2021/04/21 00:31:26;;;;;;;13.60;12.30;;;;;;;;;;2091690;28;20179;-60
2021/04/21 00:32:27;;;;;;;16.67;12.48;;;;;;;;;;2092293;28;20251;-57
2021/04/21 00:33:28;;;;;;;13.18;11.85;;;;;;;;;;2085789;28;20557;-59
2021/04/21 00:34:29;;;;;;;14.98;12.82;;;;;;;;;;2089339;28;20172;-60
2021/04/21 00:35:36;;;;;;;16.10;12.93;;;;;;;;;;2094341;28;20167;-59
2021/04/21 00:36:37;;;;;;;16.48;12.70;;;;;;;;;;2089965;28;20168;-58
2021/04/21 00:37:38;;;;;;;14.10;12.50;;;;;;;;;;2096115;28;20514;-60
2021/04/21 00:38:39;;;;;;;14.60;12.63;;;;;;;;;;2090506;28;20174;-59
2021/04/21 00:39:40;;;;;;;15.10;12.83;;;;;;;;;;2091578;28;20191;-57
2021/04/21 00:40:43;;;;;;;15.63;13.30;;;;;;;;;;2089860;28;20190;-60
2021/04/21 00:41:55;;;;;;;15.65;13.25;;;;;;;;;;2091695;28;20211;-57
2021/04/21 00:42:56;;;;;;;16.55;13.18;;;;;;;;;;2084183;28;21492;-59
2021/04/21 00:44:02;;;;;;;16.08;12.82;;;;;;;;;;2086727;28;20172;-60
2021/04/21 00:45:12;;;;;;;14.32;12.23;;;;;;;;;;2089957;28;20163;-57
2021/04/21 00:46:15;;;;;;;16.75;13.15;;;;;;;;;;2094543;28;20170;-58
2021/04/21 00:47:18;;;;;;;17.60;13.90;;;;;;;;;;2087834;28;20190;-57
2021/04/21 00:48:31;;;;;;;15.60;13.55;;;;;;;;;;2090599;28;20167;-57
2021/04/21 00:49:46;;;;;;;16.67;12.82;;;;;;;;;;2092912;28;20821;-59
2021/04/21 00:50:49;;;;;;;19.17;12.60;;;;;;;;;;2089992;28;20210;-59
2021/04/21 00:51:49;;;;;;;14.38;12.00;;;;;;;;;;2081803;28;20173;-58
2021/04/21 00:52:52;;;;;;;15.48;12.88;;;;;;;;;;2087325;28;20591;-58
2021/04/21 00:54:14;;;;;;;15.63;12.27;;;;;;;;;;2097240;28;20158;-59
2021/04/21 00:55:17;;;;;;;15.10;11.97;;;;;;;;;;2088081;28;20178;-59
2021/04/21 00:56:21;;;;;;;13.68;12.27;;;;;;;;;;2097147;28;20175;-59
2021/04/21 00:57:36;;;;;;;15.03;12.20;;;;;;;;;;2092913;28;20170;-58
2021/04/21 00:58:52;;;;;;;18.95;12.85;;;;;;;;;;2090554;28;20191;-60
2021/04/21 00:59:59;;;;;;;14.32;12.75;;;;;;;;;;2082724;28;20731;-60
2021/04/21 01:01:01;;;;;;;14.77;13.27;;;;;;;;;;2092471;28;20181;-60
2021/04/21 01:02:01;;;;;;;16.30;12.82;;;;;;;;;;2096175;28;20179;-57
2021/04/21 01:03:05;;;;;;;15.53;13.93;;;;;;;;;;2094296;28;20290;-62
2021/04/21 01:04:06;;;;;;;14.10;12.53;;;;;;;;;;2089269;28;20171;-60
2021/04/21 01:05:11;;;;;;;16.53;13.07;;;;;;;;;;2071030;28;20810;-60
2021/04/21 01:06:15;;;;;;;16.07;12.93;;;;;;;;;;2078386;28;20673;-60
2021/04/21 01:07:16;;;;;;;14.10;12.50;;;;;;;;;;2093004;28;20171;-60
2021/04/21 01:08:21;;;;;;;15.90;13.63;;;;;;;;;;2094082;28;20620;-60
2021/04/21 01:09:23;;;;;;;15.82;13.68;;;;;;;;;;2094168;28;20191;-60
2021/04/21 01:10:28;;;;;;;14.13;12.60;;;;;;;;;;2091847;28;20183;-61
2021/04/21 01:11:50;;;;;;;17.80;13.38;;;;;;;;;;2094512;28;20213;-60
2021/04/21 01:12:55;;;;;;;15.70;13.43;;;;;;;;;;2090704;28;20172;-59
2021/04/21 01:13:58;;;;;;;18.27;12.18;;;;;;;;;;2095953;28;20216;-60
2021/04/21 01:15:00;;;;;;;18.90;13.93;;;;;;;;;;2097714;28;20171;-60
2021/04/21 01:16:01;;;;;;;15.77;14.20;;;;;;;;;;2099508;28;20178;-59
2021/04/21 01:17:03;;;;;;;14.23;12.75;;;;;;;;;;2089556;28;20711;-59
2021/04/21 01:18:04;;;;;;;15.33;13.73;;;;;;;;;;2090736;28;20651;-61
2021/04/21 01:19:09;;;;;;;16.17;13.47;;;;;;;;;;2090246;28;20188;-61
2021/04/21 01:20:10;;;;;;;15.95;13.45;;;;;;;;;;2096093;28;20167;-59
2021/04/21 01:21:11;;;;;;;15.75;14.15;;;;;;;;;;2090206;28;20191;-60
2021/04/21 01:22:15;;;;;;;19.90;13.97;;;;;;;;;;2087218;28;20253;-60
2021/04/21 01:23:15;;;;;;;17.33;14.30;;;;;;;;;;2087853;28;20616;-61
2021/04/21 01:24:30;;;;;;;16.97;13.63;;;;;;;;;;2091627;28;20187;-60
2021/04/21 01:25:49;;;;;;;17.65;14.65;;;;;;;;;;2093051;28;20182;-59
2021/04/21 01:26:57;;;;;;;15.93;13.40;;;;;;;;;;2080642;28;20638;-60
2021/04/21 01:27:59;;;;;;;18.10;13.97;;;;;;;;;;2088744;28;20553;-61
2021/04/21 01:29:00;;;;;;;16.48;13.00;;;;;;;;;;2088825;28;20597;-56
2021/04/21 01:30:00;;;;;;;15.20;13.63;;;;;;;;;;2090480;28;20579;-61
2021/04/21 01:31:01;;;;;;;14.97;13.37;;;;;;;;;;2096401;28;20258;-54
2021/04/21 01:32:08;;;;;;;17.77;13.80;;;;;;;;;;2090445;28;20253;-62
2021/04/21 01:33:11;;;;;;;15.17;13.67;;;;;;;;;;2093008;28;20291;-60
2021/04/21 01:34:13;;;;;;;16.83;12.97;;;;;;;;;;2095254;28;20176;-59
2021/04/21 01:35:14;;;;;;;17.10;14.10;;;;;;;;;;2088068;28;20174;-60
2021/04/21 01:36:18;;;;;;;18.47;14.07;;;;;;;;;;2091643;28;20174;-59
2021/04/21 01:37:21;;;;;;;14.67;13.00;;;;;;;;;;2089227;28;20182;-60
2021/04/21 01:38:22;;;;;;;16.57;13.77;;;;;;;;;;2085449;28;20192;-58
2021/04/21 01:39:23;;;;;;;18.03;14.90;;;;;;;;;;2089354;28;20282;-57
2021/04/21 01:40:35;;;;;;;14.97;13.10;;;;;;;;;;2090113;28;20171;-57
2021/04/21 01:41:38;;;;;;;16.00;14.40;;;;;;;;;;2093942;28;20167;-61
2021/04/21 01:42:40;;;;;;;16.33;13.63;;;;;;;;;;2090082;28;20552;-61
2021/04/21 01:43:59;;;;;;;16.53;13.60;;;;;;;;;;2089879;28;20233;-59
2021/04/21 01:45:00;;;;;;;16.73;13.73;;;;;;;;;;2084087;28;20175;-59
2021/04/21 01:46:01;;;;;;;15.33;13.73;;;;;;;;;;2095674;28;20175;-57
2021/04/21 01:47:03;;;;;;;17.43;13.17;;;;;;;;;;2088197;28;20207;-55
2021/04/21 01:48:06;;;;;;;18.73;14.57;;;;;;;;;;2089068;28;20208;-56
2021/04/21 01:49:33;;;;;;;18.80;13.67;;;;;;;;;;2097576;28;20248;-56
2021/04/21 01:50:34;;;;;;;15.27;13.67;;;;;;;;;;2088039;28;20274;-60
2021/04/21 01:51:36;;;;;;;15.57;13.53;;;;;;;;;;2088633;28;20176;-59
2021/04/21 01:52:46;;;;;;;17.37;14.03;;;;;;;;;;2094708;28;20514;-61
2021/04/21 01:53:54;;;;;;;16.00;13.47;;;;;;;;;;2087384;28;20179;-60
2021/04/21 01:54:58;;;;;;;18.27;14.07;;;;;;;;;;2082734;28;20204;-61
2021/04/21 01:55:58;;;;;;;17.83;14.43;;;;;;;;;;2093809;28;20180;-59
2021/04/21 01:57:01;;;;;;;16.23;13.80;;;;;;;;;;2089742;28;20155;-61
2021/04/21 01:58:04;;;;;;;15.90;13.20;;;;;;;;;;2091161;28;20546;-60
2021/04/21 01:59:23;;;;;;;18.77;14.50;;;;;;;;;;2095857;28;20169;-59
2021/04/21 02:00:38;;;;;;;16.37;13.83;;;;;;;;;;2093492;28;20182;-59
2021/04/21 02:01:39;;;;;;;18.43;13.17;;;;;;;;;;2089360;28;20198;-58
2021/04/21 02:02:42;;;;;;;17.80;14.03;;;;;;;;;;2092844;28;20165;-61
2021/04/21 02:03:46;;;;;;;21.47;14.40;;;;;;;;;;2092777;28;20167;-59
2021/04/21 02:05:05;;;;;;;20.80;14.60;;;;;;;;;;2096854;28;20178;-60
2021/04/21 02:06:24;;;;;;;18.67;13.23;;;;;;;;;;2084692;28;20635;-60
2021/04/21 02:07:45;;;;;;;17.67;13.67;;;;;;;;;;2091002;28;20225;-60
2021/04/21 02:08:45;;;;;;;32.57;15.00;;;;;;;;;;2096076;28;20224;-58
2021/04/21 02:09:59;;;;;;;29.77;16.13;;;;;;;;;;2086050;28;20251;-61
2021/04/21 02:11:16;;;;;;;35.97;15.70;;;;;;;;;;2084185;28;20175;-59
2021/04/21 02:12:28;;;;;;;31.33;15.23;;;;;;;;;;2088134;28;20167;-58
2021/04/21 02:13:33;;;;;;;30.90;16.10;;;;;;;;;;2088989;28;20196;-60
2021/04/21 02:14:41;;;;;;;33.33;17.33;;;;;;;;;;2093494;28;20313;-60
2021/04/21 02:15:50;;;;;;;35.10;16.10;;;;;;;;;;2085969;28;20185;-59
2021/04/21 02:16:53;;;;;;;34.17;15.57;;;;;;;;;;2084880;28;20218;-60
2021/04/21 02:18:04;;;;;;;31.97;16.83;;;;;;;;;;2090478;28;20221;-59
2021/04/21 02:19:08;;;;;;;33.30;15.90;;;;;;;;;;2090943;28;20171;-60
2021/04/21 02:20:08;;;;;;;24.17;15.80;;;;;;;;;;2086435;28;20161;-55
2021/04/21 02:21:13;;;;;;;20.00;14.47;;;;;;;;;;2094231;28;20218;-60
2021/04/21 02:22:26;;;;;;;19.33;14.40;;;;;;;;;;2087716;28;20171;-57
2021/04/21 02:23:29;;;;;;;21.97;14.73;;;;;;;;;;2098403;28;20200;-57
2021/04/21 02:24:48;;;;;;;18.83;15.97;;;;;;;;;;2095249;28;20188;-59
2021/04/21 02:26:02;;;;;;;21.87;16.10;;;;;;;;;;2097319;28;20175;-60
2021/04/21 02:27:05;;;;;;;23.37;15.20;;;;;;;;;;2083156;28;20616;-61
2021/04/21 02:28:29;;;;;;;27.53;16.40;;;;;;;;;;2091778;28;20184;-60
2021/04/21 02:29:29;;;;;;;18.13;15.40;;;;;;;;;;2084647;28;20215;-59
2021/04/21 02:30:35;;;;;;;17.93;15.47;;;;;;;;;;2095740;28;20187;-61
2021/04/21 02:31:51;;;;;;;17.67;14.47;;;;;;;;;;2091608;28;20175;-60
2021/04/21 02:33:11;;;;;;;20.97;15.60;;;;;;;;;;2089672;28;20566;-61
2021/04/21 02:34:30;;;;;;;19.93;14.17;;;;;;;;;;2096123;28;20179;-59
2021/04/21 02:35:46;;;;;;;15.97;14.03;;;;;;;;;;2095879;28;20566;-58
2021/04/21 02:36:52;;;;;;;19.70;14.73;;;;;;;;;;2087922;28;20163;-60
2021/04/21 02:37:58;;;;;;;20.73;15.30;;;;;;;;;;2082928;28;20172;-58
2021/04/21 02:39:09;;;;;;;18.07;15.50;;;;;;;;;;2090717;28;20172;-61
2021/04/21 02:40:28;;;;;;;18.20;15.37;;;;;;;;;;2095914;28;20183;-58
2021/04/21 02:41:37;;;;;;;19.13;16.17;;;;;;;;;;2093254;28;20174;-61
2021/04/21 02:42:48;;;;;;;18.57;14.57;;;;;;;;;;2103475;28;20261;-58
2021/04/21 02:44:15;;;;;;;20.40;14.57;;;;;;;;;;2104557;28;20265;-60
2021/04/21 02:45:24;;;;;;;18.37;15.23;;;;;;;;;;2059459;28;20264;-60
2021/04/21 02:46:35;;;;;;;18.43;15.67;;;;;;;;;;2088367;28;20199;-61
2021/04/21 02:47:42;;;;;;;19.47;17.03;;;;;;;;;;2095163;28;20170;-59
2021/04/21 02:49:03;;;;;;;20.37;16.70;;;;;;;;;;2090776;28;20203;-59
2021/04/21 02:50:09;;;;;;;19.77;15.50;;;;;;;;;;2084206;28;20187;-61
2021/04/21 02:51:13;;;;;;;17.97;14.90;;;;;;;;;;2085454;28;20315;-59
2021/04/21 02:52:16;;;;;;;21.80;15.87;;;;;;;;;;2083722;28;20171;-59
2021/04/21 02:53:23;;;;;;;18.20;15.67;;;;;;;;;;2084498;28;20612;-62
2021/04/21 02:54:34;;;;;;;16.63;14.97;;;;;;;;;;2095560;28;20183;-59
2021/04/21 02:55:44;;;;;;;20.70;16.10;;;;;;;;;;2091407;28;20620;-60
2021/04/21 02:56:52;;;;;;;19.47;15.50;;;;;;;;;;2097485;28;20174;-60
2021/04/21 02:58:00;;;;;;;19.20;17.17;;;;;;;;;;2083276;28;20211;-59
2021/04/21 02:59:19;;;;;;;21.43;16.50;;;;;;;;;;2096564;28;20270;-57
2021/04/21 03:00:26;;;;;;;21.93;15.90;;;;;;;;;;2089989;28;20182;-59
2021/04/21 03:01:37;;;;;;;22.30;16.77;;;;;;;;;;2089073;28;20167;-62
2021/04/21 03:02:56;;;;;;;21.60;16.97;;;;;;;;;;2095139;28;20210;-59
2021/04/21 03:04:04;;;;;;;18.53;15.70;;;;;;;;;;2097258;28;20254;-59
2021/04/21 03:05:10;;;;;;;21.40;16.37;;;;;;;;;;2091944;28;20176;-62
2021/04/21 03:06:11;;;;;;;22.67;16.20;;;;;;;;;;2095383;28;20194;-59
2021/04/21 03:07:14;;;;;;;17.77;15.20;;;;;;;;;;2088285;28;20261;-57
2021/04/21 03:08:29;;;;;;;20.20;17.10;;;;;;;;;;2089068;28;20183;-60
2021/04/21 03:09:47;;;;;;;21.53;16.77;;;;;;;;;;2093054;28;20198;-58
2021/04/21 03:11:08;;;;;;;22.13;16.10;;;;;;;;;;2089063;28;20687;-58
2021/04/21 03:12:10;;;;;;;18.67;16.57;;;;;;;;;;2090375;28;20223;-61
2021/04/21 03:13:25;;;;;;;17.87;15.67;;;;;;;;;;2089399;28;20264;-60
2021/04/21 03:14:28;;;;;;;20.30;16.47;;;;;;;;;;2089840;28;21063;-61
2021/04/21 03:15:29;;;;;;;18.93;15.60;;;;;;;;;;2093172;28;20651;-57
2021/04/21 03:16:31;;;;;;;19.90;17.13;;;;;;;;;;2093357;28;20397;-60
2021/04/21 03:17:31;;;;;;;19.77;16.40;;;;;;;;;;2091537;28;20530;-59
2021/04/21 03:18:32;;;;;;;20.90;16.83;;;;;;;;;;2092112;28;20202;-60
2021/04/21 03:19:34;;;;;;;17.73;15.43;;;;;;;;;;2094715;28;20222;-57
2021/04/21 03:20:37;;;;;;;21.93;16.93;;;;;;;;;;2091723;28;20171;-58
2021/04/21 03:21:42;;;;;;;18.87;16.07;;;;;;;;;;2093594;28;20185;-60
2021/04/21 03:22:49;;;;;;;19.60;15.73;;;;;;;;;;2074382;28;20175;-58
2021/04/21 03:23:53;;;;;;;19.40;15.67;;;;;;;;;;2080871;28;20180;-61
2021/04/21 03:24:57;;;;;;;20.27;16.63;;;;;;;;;;2093236;28;20176;-57
2021/04/21 03:25:58;;;;;;;20.53;16.47;;;;;;;;;;2097695;28;20159;-56
2021/04/21 03:27:01;;;;;;;23.63;16.40;;;;;;;;;;2090673;28;20668;-57
2021/04/21 03:28:02;;;;;;;19.63;16.03;;;;;;;;;;2094402;28;20656;-61
2021/04/21 03:29:04;;;;;;;19.43;16.50;;;;;;;;;;2096773;28;20175;-60
2021/04/21 03:30:06;;;;;;;20.93;16.17;;;;;;;;;;2092506;28;20172;-59
2021/04/21 03:31:08;;;;;;;19.63;15.50;;;;;;;;;;2090653;28;20180;-59
2021/04/21 03:32:12;;;;;;;19.47;15.53;;;;;;;;;;2094522;28;20187;-56
2021/04/21 03:33:24;;;;;;;21.43;16.57;;;;;;;;;;2095096;28;20198;-59
2021/04/21 03:34:25;;;;;;;18.10;16.13;;;;;;;;;;2094000;28;20179;-59
2021/04/21 03:35:26;;;;;;;20.70;15.97;;;;;;;;;;2082465;28;20180;-61
2021/04/21 03:36:26;;;;;;;19.23;16.43;;;;;;;;;;2091470;28;20173;-56
2021/04/21 03:37:31;;;;;;;19.07;17.03;;;;;;;;;;2094701;28;20186;-57
2021/04/21 03:38:32;;;;;;;21.17;16.97;;;;;;;;;;2091591;28;20199;-60
2021/04/21 03:39:32;;;;;;;17.73;15.83;;;;;;;;;;2095463;28;20205;-59
2021/04/21 03:40:32;;;;;;;20.17;16.77;;;;;;;;;;2087885;28;20172;-58
2021/04/21 03:41:33;;;;;;;19.90;16.97;;;;;;;;;;2074702;28;20604;-57
2021/04/21 03:42:34;;;;;;;19.13;15.80;;;;;;;;;;2081046;28;20577;-59
2021/04/21 03:43:34;;;;;;;19.97;16.40;;;;;;;;;;2086247;28;20584;-60
2021/04/21 03:44:34;;;;;;;20.37;15.90;;;;;;;;;;2087300;28;20202;-56
2021/04/21 03:45:35;;;;;;;20.80;16.93;;;;;;;;;;2085408;28;20194;-58
2021/04/21 03:46:35;;;;;;;21.87;17.30;;;;;;;;;;2087515;28;20199;-59
2021/04/21 03:47:36;;;;;;;17.87;16.03;;;;;;;;;;2085528;28;20207;-61
2021/04/21 03:48:37;;;;;;;19.50;16.10;;;;;;;;;;2096732;28;20317;-61
2021/04/21 03:49:38;;;;;;;17.87;15.57;;;;;;;;;;2090897;28;20926;-57
2021/04/21 03:50:38;;;;;;;21.20;16.13;;;;;;;;;;2094081;28;20183;-58
2021/04/21 03:51:40;;;;;;;17.60;15.47;;;;;;;;;;2098347;28;20163;-58
2021/04/21 03:52:42;;;;;;;20.67;16.50;;;;;;;;;;2091112;28;20262;-61
2021/04/21 03:53:43;;;;;;;20.20;17.57;;;;;;;;;;2095449;28;20221;-59
2021/04/21 03:54:44;;;;;;;20.70;16.27;;;;;;;;;;2089980;28;20655;-60
2021/04/21 03:55:45;;;;;;;19.23;16.43;;;;;;;;;;2093675;28;20233;-60
2021/04/21 03:56:45;;;;;;;18.90;16.83;;;;;;;;;;2090136;28;20245;-61
2021/04/21 03:57:47;;;;;;;19.63;16.77;;;;;;;;;;2090453;28;20183;-58
2021/04/21 03:58:48;;;;;;;21.70;17.10;;;;;;;;;;2090267;28;20241;-57
2021/04/21 03:59:49;;;;;;;20.03;16.53;;;;;;;;;;2090325;28;20252;-61
2021/04/21 04:00:51;;;;;;;22.97;17.20;;;;;;;;;;2089760;28;20615;-59
2021/04/21 04:01:53;;;;;;;22.83;17.00;;;;;;;;;;2090514;28;20172;-59
2021/04/21 04:02:56;;;;;;;20.90;16.93;;;;;;;;;;2090792;28;20202;-59
2021/04/21 04:04:01;;;;;;;22.17;16.50;;;;;;;;;;2090953;28;20176;-58
2021/04/21 04:05:04;;;;;;;19.70;16.27;;;;;;;;;;2090977;28;20164;-60
2021/04/21 04:06:09;;;;;;;18.90;16.87;;;;;;;;;;2091805;28;20262;-61
2021/04/21 04:07:13;;;;;;;21.83;16.97;;;;;;;;;;2090504;28;20180;-58
2021/04/21 04:08:16;;;;;;;23.00;16.93;;;;;;;;;;2089931;28;20175;-59
2021/04/21 04:09:19;;;;;;;18.80;16.10;;;;;;;;;;2090119;28;20168;-55
2021/04/21 04:10:21;;;;;;;21.77;16.17;;;;;;;;;;2090658;28;20171;-57
2021/04/21 04:11:27;;;;;;;19.53;17.00;;;;;;;;;;2089444;28;20183;-60
2021/04/21 04:12:30;;;;;;;21.40;17.07;;;;;;;;;;2089714;28;20187;-58
2021/04/21 04:13:32;;;;;;;18.43;16.30;;;;;;;;;;2089678;28;20184;-58
2021/04/21 04:14:33;;;;;;;20.93;16.77;;;;;;;;;;2089446;28;20199;-57
2021/04/21 04:15:35;;;;;;;19.70;15.70;;;;;;;;;;2095411;28;20175;-57
2021/04/21 04:16:38;;;;;;;17.67;15.27;;;;;;;;;;2090048;28;20657;-55
2021/04/21 04:17:43;;;;;;;18.97;15.30;;;;;;;;;;2092128;28;20196;-57
2021/04/21 04:18:45;;;;;;;17.57;15.53;;;;;;;;;;2091101;28;20185;-60
2021/04/21 04:19:45;;;;;;;18.03;15.67;;;;;;;;;;2088865;28;20213;-60
2021/04/21 04:20:46;;;;;;;20.37;15.77;;;;;;;;;;2097916;28;20539;-59
2021/04/21 04:21:51;;;;;;;22.63;17.50;;;;;;;;;;2089931;28;20179;-61
2021/04/21 04:22:51;;;;;;;26.17;17.53;;;;;;;;;;2084980;28;20179;-59
2021/04/21 04:23:52;;;;;;;23.60;18.10;;;;;;;;;;2088169;28;20529;-56
2021/04/21 04:24:53;;;;;;;21.23;17.40;;;;;;;;;;2095828;28;20181;-63
2021/04/21 04:25:57;;;;;;;21.67;17.20;;;;;;;;;;2097104;28;20255;-57
2021/04/21 04:27:00;;;;;;;22.70;18.30;;;;;;;;;;2090477;28;20188;-59
2021/04/21 04:28:01;;;;;;;22.07;17.87;;;;;;;;;;2095555;28;20226;-59
2021/04/21 04:29:02;;;;;;;21.43;18.17;;;;;;;;;;2096007;28;20224;-53
2021/04/21 04:30:03;;;;;;;25.67;17.87;;;;;;;;;;2089156;28;20257;-60
2021/04/21 04:31:04;;;;;;;21.10;18.80;;;;;;;;;;2089945;28;20239;-59
2021/04/21 04:32:05;;;;;;;23.43;18.43;;;;;;;;;;2093941;28;20799;-61
2021/04/21 04:33:06;;;;;;;26.13;18.90;;;;;;;;;;2092815;28;20246;-58
2021/04/21 04:34:07;;;;;;;26.50;18.60;;;;;;;;;;2094983;28;20543;-59
2021/04/21 04:35:11;;;;;;;23.57;18.50;;;;;;;;;;2091609;28;20254;-59
2021/04/21 04:36:11;;;;;;;20.93;17.10;;;;;;;;;;2087732;28;20241;-59
2021/04/21 04:37:16;;;;;;;22.83;17.90;;;;;;;;;;2086931;28;20188;-62
2021/04/21 04:38:16;;;;;;;23.17;17.87;;;;;;;;;;2088219;28;20187;-61
2021/04/21 04:39:16;;;;;;;26.10;18.70;;;;;;;;;;2088781;28;20274;-58
2021/04/21 04:40:18;;;;;;;21.53;18.17;;;;;;;;;;2088370;28;20171;-60
2021/04/21 04:41:18;;;;;;;22.33;18.40;;;;;;;;;;2089478;28;20175;-61
2021/04/21 04:42:19;;;;;;;22.33;17.50;;;;;;;;;;2093998;28;20575;-60
2021/04/21 04:43:20;;;;;;;26.00;18.13;;;;;;;;;;2093471;28;20591;-59
2021/04/21 04:44:21;;;;;;;24.33;18.27;;;;;;;;;;2093583;28;20162;-57
2021/04/21 04:45:23;;;;;;;21.83;17.20;;;;;;;;;;2097269;28;20691;-61
2021/04/21 04:46:26;;;;;;;20.97;16.73;;;;;;;;;;2096247;28;20167;-58
2021/04/21 04:47:30;;;;;;;22.83;18.60;;;;;;;;;;2088295;28;20183;-58
2021/04/21 04:48:40;;;;;;;21.00;17.53;;;;;;;;;;2099640;28;20170;-61
2021/04/21 04:49:45;;;;;;;22.10;17.67;;;;;;;;;;2090040;28;20680;-56
2021/04/21 04:50:47;;;;;;;20.60;17.13;;;;;;;;;;2093438;28;20194;-57
2021/04/21 04:51:50;;;;;;;24.23;18.40;;;;;;;;;;2091486;28;20167;-59
2021/04/21 04:52:53;;;;;;;22.87;18.13;;;;;;;;;;2089449;28;20163;-56
2021/04/21 04:53:53;;;;;;;21.63;17.43;;;;;;;;;;2093204;28;20268;-60
2021/04/21 04:54:54;;;;;;;24.40;19.57;;;;;;;;;;2092128;28;20166;-59
2021/04/21 04:55:55;;;;;;;20.87;17.87;;;;;;;;;;2086483;28;20184;-58
2021/04/21 04:56:55;;;;;;;22.90;18.00;;;;;;;;;;2089244;28;20172;-59
2021/04/21 04:57:56;;;;;;;24.40;18.50;;;;;;;;;;2088632;28;20218;-60
2021/04/21 04:58:57;;;;;;;29.90;18.90;;;;;;;;;;2088475;28;20187;-60
2021/04/21 05:00:03;;;;;;;23.13;18.57;;;;;;;;;;2089429;28;20679;-60
2021/04/21 05:01:05;;;;;;;23.00;17.70;;;;;;;;;;2089112;28;20199;-61
2021/04/21 05:02:07;;;;;;;24.50;18.00;;;;;;;;;;2095004;28;20320;-57
2021/04/21 05:03:16;;;;;;;25.17;18.03;;;;;;;;;;2089454;28;20190;-57
2021/04/21 05:04:18;;;;;;;24.80;17.63;;;;;;;;;;2088945;28;20179;-59
2021/04/21 05:05:19;;;;;;;22.80;17.33;;;;;;;;;;2098249;28;20162;-58
2021/04/21 05:06:24;;;;;;;21.00;17.67;;;;;;;;;;2090680;28;20544;-60
2021/04/21 05:07:26;;;;;;;21.93;16.93;;;;;;;;;;2090741;28;20698;-61
2021/04/21 05:08:46;;;;;;;25.77;17.47;;;;;;;;;;2092126;28;20655;-61
2021/04/21 05:09:49;;;;;;;21.07;17.37;;;;;;;;;;2096959;28;20197;-60
2021/04/21 05:11:01;;;;;;;22.17;17.73;;;;;;;;;;2082059;28;20199;-61
2021/04/21 05:12:01;;;;;;;25.33;18.97;;;;;;;;;;2097043;28;20211;-57
2021/04/21 05:13:05;;;;;;;24.00;17.67;;;;;;;;;;2095588;28;20163;-61
2021/04/21 05:14:10;;;;;;;24.17;17.30;;;;;;;;;;2088763;28;20171;-60
2021/04/21 05:15:30;;;;;;;19.57;17.57;;;;;;;;;;2090095;28;20187;-58
2021/04/21 05:16:48;;;;;;;18.17;16.23;;;;;;;;;;2094301;28;20248;-55
2021/04/21 05:18:03;;;;;;;22.23;17.60;;;;;;;;;;2089579;28;20632;-60
2021/04/21 05:19:09;;;;;;;18.97;16.97;;;;;;;;;;2081860;28;20171;-59
2021/04/21 05:20:42;;;;;;;18.47;16.47;;;;;;;;;;2100280;22;20691;-60
2021/04/21 05:22:11;;;;;;;23.23;17.23;;;;;;;;;;2085890;28;20214;-64
2021/04/21 05:23:14;;;;;;;24.30;17.63;;;;;;;;;;2103546;28;20170;-63
2021/04/21 05:24:33;;;;;;;22.70;17.90;;;;;;;;;;2105050;28;20170;-62
2021/04/21 05:25:51;;;;;;;20.27;17.43;;;;;;;;;;2102783;28;20170;-64
2021/04/21 05:27:20;;;;;;;22.87;18.03;;;;;;;;;;2102105;28;20231;-63
2021/04/21 05:28:20;;;;;;;23.13;18.10;;;;;;;;;;2105181;28;20170;-63
2021/04/21 05:29:49;;;;;;;21.07;16.73;;;;;;;;;;2099166;28;20173;-64
2021/04/21 05:30:52;;;;;;;20.93;17.17;;;;;;;;;;2097162;28;20257;-64
2021/04/21 05:32:11;;;;;;;26.83;16.10;;;;;;;;;;2096973;28;20562;-64
2021/04/21 05:33:29;;;;;;;23.27;16.90;;;;;;;;;;2097058;28;20171;-61
2021/04/21 05:34:48;;;;;;;24.07;16.40;;;;;;;;;;2096442;28;20887;-63
2021/04/21 05:36:07;;;;;;;19.43;15.97;;;;;;;;;;2097046;28;20186;-64
2021/04/21 05:37:07;;;;;;;23.03;16.60;;;;;;;;;;2095504;28;20639;-62
2021/04/21 05:38:26;;;;;;;21.97;16.47;;;;;;;;;;2097603;28;20193;-64
2021/04/21 05:39:45;;;;;;;20.87;16.13;;;;;;;;;;2103630;28;20192;-62
2021/04/21 05:40:48;;;;;;;24.27;16.43;;;;;;;;;;2102981;28;20245;-63
2021/04/21 05:42:07;;;;;;;23.63;18.00;;;;;;;;;;2096337;28;20182;-63
2021/04/21 05:43:26;;;;;;;24.83;18.30;;;;;;;;;;2096062;28;20178;-63
2021/04/21 05:44:55;;;;;;;21.83;17.33;;;;;;;;;;2091860;28;20180;-63
2021/04/21 05:46:14;;;;;;;21.87;17.27;;;;;;;;;;2102878;28;20174;-63
2021/04/21 05:47:33;;;;;;;22.73;16.80;;;;;;;;;;2100477;28;20162;-63
2021/04/21 05:48:36;;;;;;;25.30;16.67;;;;;;;;;;2101253;28;20332;-61
2021/04/21 05:49:39;;;;;;;20.07;17.70;;;;;;;;;;2104508;28;20665;-62
2021/04/21 05:50:45;;;;;;;21.50;17.63;;;;;;;;;;2104157;28;20832;-62
2021/04/21 05:52:00;;;;;;;22.83;16.77;;;;;;;;;;2103336;28;20166;-63
2021/04/21 05:53:19;;;;;;;21.07;16.80;;;;;;;;;;2094665;28;20265;-64
2021/04/21 05:54:38;;;;;;;24.03;18.13;;;;;;;;;;2094660;28;20167;-64
2021/04/21 05:55:41;;;;;;;21.93;18.07;;;;;;;;;;2096812;28;20588;-64
2021/04/21 05:57:00;;;;;;;22.13;17.10;;;;;;;;;;2104589;28;20263;-62
2021/04/21 05:58:13;;;;;;;18.93;16.87;;;;;;;;;;2102461;28;20184;-60
2021/04/21 05:59:13;;;;;;;20.77;16.67;;;;;;;;;;2095862;28;20178;-65
2021/04/21 06:00:25;;;;;;;21.90;16.67;;;;;;;;;;2098472;28;20527;-64
2021/04/21 06:01:27;;;;;;;18.60;16.63;;;;;;;;;;2095763;28;20206;-62
2021/04/21 06:02:29;;;;;;;21.33;17.43;;;;;;;;;;2100463;28;20304;-62
2021/04/21 06:03:31;;;;;;;24.08;17.15;;;;;;;;;;2098969;28;20201;-61
2021/04/21 06:04:32;;;;;;;20.63;16.93;;;;;;;;;;2100994;28;20175;-63
2021/04/21 06:05:32;;;;;;;19.33;16.37;;;;;;;;;;2098941;28;20254;-65
2021/04/21 06:06:32;;;;;;;22.88;16.35;;;;;;;;;;2100599;28;20257;-66
2021/04/21 06:07:33;;;;;;;27.30;16.83;;;;;;;;;;2099340;28;20163;-62
2021/04/21 06:08:33;;;;;;;22.52;17.38;;;;;;;;;;2100813;28;20177;-63
2021/04/21 06:09:33;;;;;;;22.38;16.80;;;;;;;;;;2099636;28;20239;-63
2021/04/21 06:10:34;;;;;;;23.80;17.27;;;;;;;;;;2098360;28;20668;-61
2021/04/21 06:11:35;;;;;;;24.92;18.02;;;;;;;;;;2095992;28;20577;-59
2021/04/21 06:12:36;;;;;;;22.58;17.50;;;;;;;;;;2095463;28;20710;-62
2021/04/21 06:13:36;;;;;;;20.20;15.95;;;;;;;;;;2089484;28;20552;-63
2021/04/21 06:14:37;;;;;;;22.48;17.27;;;;;;;;;;2081878;28;20176;-62
2021/04/21 06:15:38;;;;;;;25.97;17.63;;;;;;;;;;2095809;28;20171;-61
2021/04/21 06:16:39;;;;;;;23.20;16.50;;;;;;;;;;2097585;28;20186;-63
2021/04/21 06:17:40;;;;;;;19.92;17.75;;;;;;;;;;2098683;28;20647;-62
2021/04/21 06:18:40;;;;;;;21.38;16.80;;;;;;;;;;2089904;28;20176;-62
2021/04/21 06:19:43;;;;;;;24.30;17.47;;;;;;;;;;2081216;28;20234;-59
2021/04/21 06:20:44;;;;;;;25.65;16.88;;;;;;;;;;2093022;28;20651;-61
2021/04/21 06:21:45;;;;;;;24.52;16.38;;;;;;;;;;2098475;28;20224;-63